Time;durP1;ratioP1;P1;durP2;ratioP2;P2;SDS_P1;SDS_P2;PMS_P1;PMS_P2;Temp;Humidity;BMP_temperature;BMP_pressure;BME280_temperature;BME280_humidity;BME280_pressure;Samples;Min_cycle;Max_cycle;Signal;HPM_P1;HPM_P2
2022/03/22 00:01:31;;;;;;;30.83;12.83;;;2.80;99.90;;;;;;6241015;28;20278;-75
2022/03/22 00:04:39;;;;;;;24.97;12.93;;;2.70;99.90;;;;;;6240401;28;20291;-74
2022/03/22 00:07:46;;;;;;;25.43;12.90;;;2.60;99.90;;;;;;6240378;28;20594;-75
2022/03/22 00:10:51;;;;;;;22.27;12.73;;;2.60;99.90;;;;;;6240299;28;20588;-75
2022/03/22 00:13:57;;;;;;;23.57;13.50;;;2.60;99.90;;;;;;6240159;28;20299;-75
2022/03/22 00:17:04;;;;;;;29.80;13.53;;;2.50;99.90;;;;;;6240384;28;20274;-75
2022/03/22 00:20:30;;;;;;;28.77;13.37;;;2.50;99.90;;;;;;6239974;28;20298;-75
2022/03/22 00:23:37;;;;;;;26.00;13.60;;;2.50;99.90;;;;;;6239915;28;20299;-75
2022/03/22 00:26:43;;;;;;;30.43;13.43;;;2.40;99.90;;;;;;6240653;28;20275;-75
2022/03/22 00:29:48;;;;;;;25.07;13.10;;;2.40;99.90;;;;;;6222503;28;20315;-74
2022/03/22 00:32:56;;;;;;;24.83;13.17;;;2.40;99.90;;;;;;6239841;28;20296;-74
2022/03/22 00:36:01;;;;;;;28.97;14.00;;;2.50;99.90;;;;;;6240568;28;20289;-75
2022/03/22 00:39:10;;;;;;;21.30;13.57;;;2.40;99.90;;;;;;6239573;28;20303;-74
2022/03/22 00:42:15;;;;;;;31.43;14.33;;;2.40;99.90;;;;;;6239622;28;20277;-74
2022/03/22 00:45:24;;;;;;;26.80;13.73;;;2.30;99.90;;;;;;6239623;28;20276;-75
2022/03/22 00:48:30;;;;;;;34.57;14.13;;;2.30;99.90;;;;;;6239849;28;20301;-74
2022/03/22 00:51:36;;;;;;;43.67;15.00;;;2.30;99.90;;;;;;6239453;28;20268;-74
2022/03/22 00:54:42;;;;;;;40.57;14.63;;;2.30;99.90;;;;;;6239503;28;20298;-74
2022/03/22 00:57:49;;;;;;;49.77;14.97;;;2.20;99.90;;;;;;6239248;28;20480;-75
2022/03/22 01:00:54;;;;;;;40.70;14.40;;;2.20;99.90;;;;;;6239346;28;20299;-75
2022/03/22 01:04:00;;;;;;;36.93;14.43;;;2.30;99.90;;;;;;6238593;28;20291;-75
2022/03/22 01:07:06;;;;;;;37.20;14.43;;;2.30;99.90;;;;;;6239073;28;20276;-75
2022/03/22 01:10:15;;;;;;;22.03;13.23;;;2.30;99.90;;;;;;6239708;28;20296;-75
2022/03/22 01:13:21;;;;;;;31.10;13.40;;;2.30;99.90;;;;;;6238533;28;20302;-75
2022/03/22 01:16:27;;;;;;;32.70;14.87;;;2.30;99.90;;;;;;6239461;28;20276;-75
2022/03/22 01:19:32;;;;;;;30.83;13.30;;;2.20;99.90;;;;;;6238806;28;20307;-75
2022/03/22 01:22:38;;;;;;;33.00;14.80;;;2.20;99.90;;;;;;6238593;28;20304;-75
2022/03/22 01:25:45;;;;;;;29.63;13.60;;;2.20;99.90;;;;;;6239044;28;20453;-75
2022/03/22 01:28:50;;;;;;;44.13;14.40;;;2.20;99.90;;;;;;6238503;28;20304;-75
2022/03/22 01:31:56;;;;;;;30.43;14.00;;;2.20;99.90;;;;;;6238995;28;20282;-75
2022/03/22 01:35:01;;;;;;;30.57;15.03;;;2.10;99.90;;;;;;6238471;28;20297;-75
2022/03/22 01:38:08;;;;;;;32.17;13.53;;;2.10;99.90;;;;;;6238330;28;20312;-75
2022/03/22 01:41:15;;;;;;;25.57;13.80;;;2.00;99.90;;;;;;6238361;28;20298;-75
2022/03/22 01:44:20;;;;;;;24.50;13.70;;;2.00;99.90;;;;;;6238230;28;20297;-75
2022/03/22 01:47:26;;;;;;;23.40;12.83;;;2.00;99.90;;;;;;6237739;28;20306;-74
2022/03/22 01:50:31;;;;;;;33.43;14.13;;;1.90;99.90;;;;;;6238569;28;20273;-75
2022/03/22 01:53:37;;;;;;;28.30;13.60;;;1.90;99.90;;;;;;6238192;28;20325;-74
2022/03/22 01:56:44;;;;;;;24.27;14.13;;;1.90;99.90;;;;;;6238518;28;20557;-75
2022/03/22 01:59:50;;;;;;;25.27;13.83;;;1.80;99.90;;;;;;6236241;28;20296;-75
2022/03/22 02:06:20;;;;;;;25.27;13.67;;;1.80;99.90;;;;;;6238770;28;20453;-75
2022/03/22 02:09:25;;;;;;;27.83;14.27;;;1.80;99.90;;;;;;6237607;28;20307;-75
2022/03/22 02:12:32;;;;;;;25.70;14.43;;;1.70;99.90;;;;;;6237366;28;20296;-75
2022/03/22 02:15:37;;;;;;;32.63;15.00;;;1.70;99.90;;;;;;6237181;28;20268;-75
2022/03/22 02:18:43;;;;;;;25.03;14.27;;;1.70;99.90;;;;;;6237473;28;20300;-75
2022/03/22 02:21:54;;;;;;;26.13;14.10;;;1.60;99.90;;;;;;6237678;28;20295;-75
2022/03/22 02:25:00;;;;;;;27.63;13.67;;;1.60;99.90;;;;;;6236930;28;20308;-75
2022/03/22 02:28:06;;;;;;;27.47;15.00;;;1.60;99.90;;;;;;6237308;28;20304;-75
2022/03/22 02:31:13;;;;;;;27.67;14.20;;;1.60;99.90;;;;;;6237086;28;20281;-75
2022/03/22 02:34:19;;;;;;;28.47;14.03;;;1.60;99.90;;;;;;6237048;28;20316;-74
2022/03/22 02:37:25;;;;;;;30.13;14.53;;;1.50;99.90;;;;;;6236978;28;20293;-74
2022/03/22 02:40:32;;;;;;;32.60;14.83;;;1.50;99.90;;;;;;6237103;28;20296;-74
2022/03/22 02:43:37;;;;;;;24.33;13.77;;;1.40;99.90;;;;;;6237172;28;20296;-74
2022/03/22 02:46:42;;;;;;;34.90;14.57;;;1.40;99.90;;;;;;6236880;28;20278;-74
2022/03/22 02:49:48;;;;;;;29.53;14.33;;;1.40;99.90;;;;;;6236626;28;20312;-73
2022/03/22 02:52:53;;;;;;;34.50;14.80;;;1.20;99.90;;;;;;6236756;28;20308;-74
2022/03/22 02:55:59;;;;;;;27.23;15.47;;;1.20;99.90;;;;;;6237384;28;20280;-73
2022/03/22 02:59:05;;;;;;;28.00;14.60;;;1.20;99.90;;;;;;6236762;28;20302;-75
2022/03/22 03:02:11;;;;;;;30.53;14.70;;;1.20;99.90;;;;;;6236314;28;20299;-75
2022/03/22 03:05:17;;;;;;;30.90;15.00;;;1.20;99.90;;;;;;6236541;28;20293;-74
2022/03/22 03:08:26;;;;;;;27.37;14.87;;;1.20;99.90;;;;;;6235727;28;20311;-74
2022/03/22 03:11:33;;;;;;;27.53;15.10;;;1.20;99.90;;;;;;6236561;28;20269;-75
2022/03/22 03:14:41;;;;;;;38.23;15.43;;;1.20;99.90;;;;;;6235593;28;20303;-74
2022/03/22 03:17:46;;;;;;;28.83;14.97;;;1.10;99.90;;;;;;6236279;28;20288;-74
2022/03/22 03:20:51;;;;;;;26.27;14.57;;;1.10;99.90;;;;;;6236792;28;20275;-74
2022/03/22 03:23:58;;;;;;;30.53;15.03;;;1.00;99.90;;;;;;6236480;28;20299;-74
2022/03/22 03:27:05;;;;;;;30.00;14.73;;;1.10;99.90;;;;;;6235599;28;20275;-75
2022/03/22 03:30:12;;;;;;;29.50;14.10;;;1.00;99.90;;;;;;6236402;28;20463;-74
2022/03/22 03:33:20;;;;;;;31.63;15.57;;;1.00;99.90;;;;;;6236233;28;20303;-74
2022/03/22 03:36:25;;;;;;;30.93;14.07;;;1.00;99.90;;;;;;6236929;28;20460;-76
2022/03/22 03:39:30;;;;;;;29.73;14.57;;;1.00;99.90;;;;;;6236675;28;20304;-75
2022/03/22 03:42:42;;;;;;;26.17;14.80;;;0.90;99.90;;;;;;6235631;28;20299;-75
2022/03/22 03:49:14;;;;;;;35.63;15.63;;;0.90;99.90;;;;;;6236038;28;20456;-75
2022/03/22 03:52:22;;;;;;;31.83;14.67;;;0.90;99.90;;;;;;6235798;28;20433;-74
2022/03/22 03:55:28;;;;;;;26.63;14.50;;;0.80;99.90;;;;;;6236359;28;20276;-75
2022/03/22 03:58:34;;;;;;;31.30;15.17;;;0.80;99.90;;;;;;6235750;28;20395;-75
2022/03/22 04:01:39;;;;;;;28.60;14.23;;;0.80;99.90;;;;;;6235014;28;20300;-75
2022/03/22 04:04:47;;;;;;;29.63;13.53;;;0.90;99.90;;;;;;6229447;28;20299;-75
2022/03/22 04:07:52;;;;;;;23.57;14.03;;;0.80;99.90;;;;;;6235353;28;20307;-75
2022/03/22 04:10:57;;;;;;;29.60;14.77;;;0.80;99.90;;;;;;6235568;28;20461;-75
2022/03/22 04:14:04;;;;;;;24.20;14.00;;;0.80;99.90;;;;;;6235292;28;20493;-75
2022/03/22 04:17:11;;;;;;;28.73;14.23;;;0.80;99.90;;;;;;6235897;28;20276;-75
2022/03/22 04:20:17;;;;;;;23.37;14.13;;;0.80;99.90;;;;;;6235753;28;20293;-75
2022/03/22 04:23:23;;;;;;;26.87;14.23;;;0.80;99.90;;;;;;6235555;28;20303;-74
2022/03/22 04:26:28;;;;;;;29.13;14.53;;;0.80;99.90;;;;;;6236162;28;20272;-75
2022/03/22 04:32:57;;;;;;;27.43;13.37;;;0.70;99.90;;;;;;6235253;28;20308;-75
2022/03/22 04:36:03;;;;;;;24.87;13.67;;;0.80;99.90;;;;;;6236113;28;20264;-74
2022/03/22 04:39:08;;;;;;;27.20;14.33;;;0.70;99.90;;;;;;6239094;28;20299;-75
2022/03/22 04:42:14;;;;;;;28.00;13.67;;;0.70;99.90;;;;;;6240241;28;20300;-75
2022/03/22 04:45:21;;;;;;;21.67;13.77;;;0.70;99.90;;;;;;6239640;28;20643;-74
2022/03/22 04:48:26;;;;;;;25.47;13.33;;;0.70;99.90;;;;;;6239731;28;20299;-74
2022/03/22 04:58:17;;;;;;;30.20;13.60;;;0.70;99.90;;;;;;6239820;28;20294;-75
2022/03/22 05:01:24;;;;;;;29.90;13.47;;;0.70;99.90;;;;;;6240316;28;20271;-75
2022/03/22 05:04:30;;;;;;;27.07;14.13;;;0.70;99.90;;;;;;6239985;28;20299;-74
2022/03/22 05:07:35;;;;;;;24.70;14.33;;;0.60;99.90;;;;;;6238863;28;20276;-75
2022/03/22 05:10:41;;;;;;;24.80;13.10;;;0.70;99.90;;;;;;6239343;28;20488;-75
2022/03/22 05:13:46;;;;;;;27.73;13.37;;;0.70;99.90;;;;;;6239099;28;20306;-74
2022/03/22 05:16:58;;;;;;;27.30;14.03;;;0.70;99.90;;;;;;6239423;28;20566;-75
2022/03/22 05:20:06;;;;;;;29.17;13.53;;;0.80;99.90;;;;;;6238867;28;20303;-74
2022/03/22 05:23:12;;;;;;;24.07;14.20;;;0.80;99.90;;;;;;6239171;28;20303;-75
2022/03/22 05:26:18;;;;;;;22.60;12.80;;;0.90;99.90;;;;;;6239337;28;20275;-75
2022/03/22 05:29:23;;;;;;;23.90;12.57;;;0.90;99.90;;;;;;6238648;28;20304;-74
2022/03/22 05:32:30;;;;;;;25.40;13.43;;;0.90;99.90;;;;;;6238555;28;20276;-75
2022/03/22 05:35:35;;;;;;;28.30;13.37;;;0.90;99.90;;;;;;6238301;28;20276;-75
2022/03/22 05:38:41;;;;;;;27.57;13.83;;;1.00;99.90;;;;;;6237920;28;20328;-74
2022/03/22 05:41:47;;;;;;;29.37;13.07;;;1.00;99.90;;;;;;6239057;28;20276;-74
2022/03/22 05:44:53;;;;;;;27.50;13.13;;;1.00;99.90;;;;;;6238390;28;20616;-74
2022/03/22 05:48:00;;;;;;;29.27;13.80;;;1.00;99.90;;;;;;6237966;28;20488;-74
2022/03/22 05:51:07;;;;;;;24.90;12.73;;;1.10;99.90;;;;;;6237531;28;20276;-75
2022/03/22 05:54:12;;;;;;;28.77;12.97;;;1.10;99.90;;;;;;6237990;28;20306;-74
2022/03/22 05:57:17;;;;;;;24.50;13.27;;;1.20;99.90;;;;;;6237986;28;20271;-74
2022/03/22 06:00:22;;;;;;;27.80;13.80;;;1.20;99.90;;;;;;6237716;28;20321;-74
2022/03/22 06:03:30;;;;;;;24.03;13.20;;;1.30;99.90;;;;;;6237733;28;20335;-75
2022/03/22 06:06:36;;;;;;;23.97;13.00;;;1.30;99.90;;;;;;6238663;28;20453;-74
2022/03/22 06:09:42;;;;;;;31.37;12.93;;;1.40;99.90;;;;;;6237402;28;20326;-74
2022/03/22 06:12:49;;;;;;;30.30;13.73;;;1.50;99.90;;;;;;6237717;28;20294;-75
2022/03/22 06:15:55;;;;;;;24.30;12.53;;;1.50;99.90;;;;;;6238177;28;20271;-74
2022/03/22 06:19:02;;;;;;;22.10;13.37;;;1.60;99.90;;;;;;6237350;28;20307;-74
2022/03/22 06:22:07;;;;;;;27.37;13.27;;;1.60;99.90;;;;;;6237974;28;20449;-74
2022/03/22 06:25:15;;;;;;;26.93;12.80;;;1.70;99.90;;;;;;6237268;28;20303;-74
2022/03/22 06:28:21;;;;;;;25.77;13.50;;;1.70;99.90;;;;;;6236957;28;20377;-75
2022/03/22 06:31:27;;;;;;;33.27;14.27;;;1.80;99.90;;;;;;6237333;28;20292;-75
2022/03/22 06:34:34;;;;;;;25.70;12.17;;;1.80;99.90;;;;;;6237338;28;20323;-75
2022/03/22 06:37:40;;;;;;;24.77;12.37;;;1.90;99.90;;;;;;6236590;28;20345;-75
2022/03/22 06:40:46;;;;;;;24.77;12.17;;;2.00;99.90;;;;;;6237312;28;20302;-74
2022/03/22 06:43:51;;;;;;;27.60;12.17;;;2.00;99.90;;;;;;6236556;28;20300;-74
2022/03/22 06:46:56;;;;;;;24.80;13.23;;;2.00;99.90;;;;;;6237047;28;20284;-74
2022/03/22 06:50:04;;;;;;;34.50;13.17;;;2.10;99.90;;;;;;6236763;28;20304;-74
2022/03/22 06:53:11;;;;;;;30.03;12.10;;;2.20;99.90;;;;;;6236489;28;20479;-74
2022/03/22 06:56:17;;;;;;;25.03;12.00;;;2.30;99.90;;;;;;6237134;28;20281;-75
2022/03/22 06:59:23;;;;;;;31.07;12.33;;;2.40;99.90;;;;;;6236491;28;20481;-75
2022/03/22 07:02:28;;;;;;;24.87;12.87;;;2.50;99.90;;;;;;6235379;28;20272;-75
2022/03/22 07:05:36;;;;;;;25.77;12.93;;;2.50;99.90;;;;;;6236320;28;20300;-75
2022/03/22 07:08:41;;;;;;;29.30;12.77;;;2.60;99.90;;;;;;6236257;28;20296;-75
2022/03/22 07:11:50;;;;;;;35.00;13.47;;;2.70;99.90;;;;;;6237374;28;20270;-75
2022/03/22 07:14:55;;;;;;;30.07;12.87;;;2.80;99.90;;;;;;6236344;28;20300;-75
2022/03/22 07:18:03;;;;;;;40.17;13.70;;;2.80;99.90;;;;;;6236474;28;20421;-75
2022/03/22 07:21:12;;;;;;;33.03;13.27;;;2.80;99.90;;;;;;6236578;28;20565;-75
2022/03/22 07:24:19;;;;;;;31.90;13.43;;;2.90;99.90;;;;;;6236174;28;20300;-76
2022/03/22 07:27:24;;;;;;;27.17;13.27;;;3.10;99.90;;;;;;6236373;28;20271;-76
2022/03/22 07:30:30;;;;;;;29.53;12.93;;;3.10;99.90;;;;;;6236804;28;20284;-75
2022/03/22 07:33:37;;;;;;;28.23;13.47;;;3.20;99.90;;;;;;6235670;28;20556;-76
2022/03/22 07:36:44;;;;;;;26.53;13.03;;;3.30;99.90;;;;;;6235884;28;20276;-76
2022/03/22 07:39:56;;;;;;;29.10;12.87;;;3.40;99.90;;;;;;6235786;28;20302;-76
2022/03/22 07:43:01;;;;;;;28.47;13.33;;;3.60;99.90;;;;;;6235526;28;20294;-75
2022/03/22 07:46:09;;;;;;;29.90;12.73;;;3.50;99.90;;;;;;6235921;28;20304;-76
2022/03/22 07:56:01;;;;;;;33.63;13.20;;;3.80;99.90;;;;;;6236298;28;20320;-74
2022/03/22 07:59:07;;;;;;;28.83;13.47;;;3.80;99.90;;;;;;6236137;28;20299;-74
2022/03/22 08:02:13;;;;;;;27.97;12.47;;;4.10;98.90;;;;;;6236442;28;20274;-74
2022/03/22 08:05:38;;;;;;;25.77;12.93;;;4.30;98.00;;;;;;6235516;28;20291;-74
2022/03/22 08:08:45;;;;;;;24.47;12.73;;;4.30;98.10;;;;;;6235746;28;20487;-75
2022/03/22 08:11:51;;;;;;;25.27;12.80;;;4.40;97.50;;;;;;6235747;28;20272;-75
2022/03/22 08:14:56;;;;;;;25.00;12.23;;;4.50;96.40;;;;;;6240410;28;20305;-74
2022/03/22 08:18:01;;;;;;;24.67;11.90;;;4.60;95.80;;;;;;6240207;28;20291;-75
2022/03/22 08:21:08;;;;;;;23.77;12.23;;;4.60;95.50;;;;;;6240983;28;20273;-75
2022/03/22 08:24:16;;;;;;;28.20;11.70;;;4.70;94.20;;;;;;6239948;28;20484;-75
2022/03/22 08:27:22;;;;;;;32.33;12.37;;;4.80;93.20;;;;;;6240016;28;20296;-75
2022/03/22 08:30:28;;;;;;;26.77;12.00;;;4.90;92.80;;;;;;6240707;28;20284;-75
2022/03/22 08:33:33;;;;;;;28.00;12.37;;;4.80;93.70;;;;;;6239613;28;20307;-75
2022/03/22 08:36:38;;;;;;;30.27;11.37;;;4.80;93.20;;;;;;6240167;28;20500;-75
2022/03/22 08:39:45;;;;;;;22.67;10.73;;;5.00;91.40;;;;;;6240005;28;20477;-75
2022/03/22 08:42:52;;;;;;;21.33;11.70;;;5.00;91.60;;;;;;6239825;28;20609;-75
2022/03/22 08:45:58;;;;;;;23.23;12.27;;;5.20;90.30;;;;;;6239902;28;20299;-75
2022/03/22 08:49:04;;;;;;;23.60;11.97;;;5.30;89.70;;;;;;6239549;28;20318;-75
2022/03/22 08:52:11;;;;;;;20.97;12.07;;;5.30;89.50;;;;;;6240009;28;20280;-75
2022/03/22 08:55:20;;;;;;;23.00;12.13;;;5.40;90.10;;;;;;6239352;28;20308;-75
2022/03/22 08:58:25;;;;;;;25.43;12.60;;;5.40;90.40;;;;;;6239392;28;20465;-75
2022/03/22 09:01:30;;;;;;;21.27;11.93;;;5.50;90.20;;;;;;6239764;28;20273;-75
2022/03/22 09:08:01;;;;;;;28.00;12.70;;;5.70;89.80;;;;;;6239255;28;20475;-75
2022/03/22 09:11:08;;;;;;;33.93;13.00;;;5.70;90.30;;;;;;6239662;28;20299;-75
2022/03/22 09:14:14;;;;;;;22.90;13.00;;;5.80;90.60;;;;;;6239139;28;20693;-75
2022/03/22 09:17:20;;;;;;;23.37;12.50;;;5.80;90.80;;;;;;6239694;28;20299;-75
2022/03/22 09:20:29;;;;;;;23.53;12.83;;;5.80;90.60;;;;;;6238892;28;20277;-75
2022/03/22 09:23:34;;;;;;;21.97;12.63;;;6.10;89.60;;;;;;6238610;28;20305;-75
2022/03/22 09:26:41;;;;;;;28.63;13.30;;;6.20;89.00;;;;;;6238922;28;20464;-75
2022/03/22 09:29:47;;;;;;;29.60;13.87;;;6.40;88.80;;;;;;6238635;28;20594;-75
2022/03/22 09:32:52;;;;;;;31.97;14.10;;;6.30;90.30;;;;;;6237963;28;20295;-75
2022/03/22 09:35:58;;;;;;;28.70;14.20;;;6.20;90.70;;;;;;6239726;28;20284;-75
2022/03/22 09:39:04;;;;;;;28.07;14.20;;;6.30;91.30;;;;;;6238539;28;20594;-75
2022/03/22 09:42:17;;;;;;;27.47;13.73;;;6.30;91.50;;;;;;6239685;28;20276;-75
2022/03/22 09:45:26;;;;;;;27.80;14.10;;;6.50;91.30;;;;;;6238315;28;20295;-75
2022/03/22 09:48:33;;;;;;;28.47;14.10;;;6.60;91.10;;;;;;6238183;28;20307;-75
2022/03/22 09:51:47;;;;;;;32.40;16.03;;;6.60;91.90;;;;;;6238849;28;20275;-75
2022/03/22 09:54:53;;;;;;;29.23;14.70;;;6.60;92.00;;;;;;6237937;28;20592;-75
2022/03/22 09:57:59;;;;;;;31.47;14.37;;;6.70;92.60;;;;;;6238307;28;20304;-75
2022/03/22 10:01:05;;;;;;;24.47;14.20;;;6.70;92.60;;;;;;6238399;28;20279;-75
2022/03/22 10:04:15;;;;;;;29.47;14.47;;;6.70;92.80;;;;;;6237936;28;20458;-75
2022/03/22 10:07:22;;;;;;;27.17;14.50;;;6.70;92.90;;;;;;6238321;28;20299;-75
2022/03/22 10:10:29;;;;;;;28.63;14.30;;;7.00;92.20;;;;;;6237570;28;20303;-76
2022/03/22 10:13:51;;;;;;;32.70;14.33;;;7.10;92.00;;;;;;6237852;28;20622;-75
2022/03/22 10:16:57;;;;;;;33.53;14.03;;;7.30;91.70;;;;;;6237812;28;20272;-75
2022/03/22 10:20:03;;;;;;;37.27;13.73;;;7.20;91.80;;;;;;6237286;28;20304;-75
2022/03/22 10:23:12;;;;;;;25.00;13.63;;;7.60;88.40;;;;;;6237343;28;20304;-75
2022/03/22 10:26:17;;;;;;;28.87;14.03;;;7.60;89.70;;;;;;6237914;28;20551;-75
2022/03/22 10:29:24;;;;;;;24.33;12.40;;;8.00;81.10;;;;;;6237419;28;20299;-74
2022/03/22 10:32:35;;;;;;;27.67;13.10;;;8.10;77.30;;;;;;6236761;28;20426;-75
2022/03/22 10:35:40;;;;;;;24.40;12.60;;;8.20;73.60;;;;;;6237342;28;20269;-75
2022/03/22 10:38:57;;;;;;;24.97;12.63;;;8.30;73.50;;;;;;6237196;28;20299;-76
2022/03/22 10:42:08;;;;;;;26.13;12.73;;;8.30;68.40;;;;;;6237770;28;20268;-76
2022/03/22 10:45:17;;;;;;;24.37;12.47;;;8.50;66.30;;;;;;6237113;28;20292;-75
2022/03/22 10:48:26;;;;;;;28.30;12.90;;;8.30;68.80;;;;;;6236751;28;20308;-75
2022/03/22 10:51:40;;;;;;;36.63;13.03;;;8.60;63.50;;;;;;6236078;28;20268;-76
2022/03/22 10:54:45;;;;;;;30.17;13.03;;;8.60;63.10;;;;;;6236592;28;20608;-76
2022/03/22 10:57:53;;;;;;;28.85;12.43;;;8.70;61.40;;;;;;6236470;28;20456;-76
2022/03/22 11:01:02;;;;;;;31.65;13.55;;;8.70;59.70;;;;;;6237473;28;20273;-76
2022/03/22 11:04:09;;;;;;;25.20;12.23;;;9.10;58.50;;;;;;6236326;28;20292;-75
2022/03/22 11:07:16;;;;;;;30.00;12.65;;;9.00;58.10;;;;;;6237002;28;20291;-75
2022/03/22 11:10:25;;;;;;;27.67;12.50;;;9.10;58.10;;;;;;6236152;28;20308;-75
2022/03/22 11:13:30;;;;;;;26.67;11.45;;;9.30;56.20;;;;;;6236131;28;20296;-75
2022/03/22 11:16:37;;;;;;;27.30;12.63;;;9.10;56.90;;;;;;6236993;28;20272;-75
2022/03/22 11:19:42;;;;;;;29.60;11.95;;;9.10;57.60;;;;;;6236563;28;20462;-74
2022/03/22 11:22:51;;;;;;;26.52;13.02;;;9.40;54.20;;;;;;6236120;28;20292;-75
2022/03/22 11:26:07;;;;;;;27.75;12.55;;;9.60;52.30;;;;;;6236609;28;20268;-76
2022/03/22 11:29:17;;;;;;;27.65;12.48;;;10.00;50.50;;;;;;6236239;28;20313;-75
2022/03/22 11:35:51;;;;;;;25.90;12.32;;;10.10;48.80;;;;;;6235894;28;20344;-76
2022/03/22 11:38:57;;;;;;;23.15;12.50;;;10.00;49.20;;;;;;6236044;28;20304;-75
2022/03/22 11:42:17;;;;;;;44.08;13.20;;;10.00;48.40;;;;;;6236601;28;20272;-75
2022/03/22 11:45:24;;;;;;;25.75;11.85;;;10.10;47.60;;;;;;6235897;28;20277;-76
2022/03/22 11:48:33;;;;;;;29.52;12.02;;;10.00;47.20;;;;;;6240615;28;20301;-75
2022/03/22 11:51:51;;;;;;;25.52;11.48;;;10.00;47.50;;;;;;6241331;28;20272;-76
2022/03/22 11:54:59;;;;;;;25.17;11.13;;;10.00;46.30;;;;;;6240748;28;20299;-76
2022/03/22 11:58:09;;;;;;;22.35;10.95;;;10.10;46.40;;;;;;6241310;28;20472;-76
2022/03/22 12:01:16;;;;;;;25.55;11.98;;;10.10;47.10;;;;;;6241385;28;20273;-76
2022/03/22 12:04:36;;;;;;;21.73;11.77;;;10.20;46.20;;;;;;6240904;28;20292;-76
2022/03/22 12:07:41;;;;;;;20.80;12.18;;;10.30;46.40;;;;;;6240452;28;20273;-76
2022/03/22 12:10:48;;;;;;;21.52;11.02;;;10.30;46.90;;;;;;6240161;28;20301;-75
2022/03/22 12:13:53;;;;;;;27.42;11.65;;;10.20;47.10;;;;;;6239652;28;20604;-76
2022/03/22 12:16:58;;;;;;;26.17;11.38;;;10.20;46.90;;;;;;6241041;28;20459;-75
2022/03/22 12:20:11;;;;;;;27.42;11.55;;;10.30;46.40;;;;;;6240656;28;20305;-75
2022/03/22 12:23:19;;;;;;;23.17;11.30;;;10.20;46.80;;;;;;6240189;28;20317;-76
2022/03/22 12:26:27;;;;;;;24.90;11.73;;;10.30;46.90;;;;;;6240941;28;20276;-76
2022/03/22 12:29:38;;;;;;;30.52;11.70;;;10.50;45.80;;;;;;6240088;28;20571;-76
2022/03/22 12:32:44;;;;;;;30.48;12.13;;;10.40;45.70;;;;;;6239916;28;20304;-76
2022/03/22 12:35:51;;;;;;;25.63;11.30;;;10.40;45.70;;;;;;6240576;28;20273;-76
2022/03/22 12:38:59;;;;;;;21.02;11.73;;;10.50;46.10;;;;;;6240042;28;20336;-76
2022/03/22 12:42:06;;;;;;;28.15;11.00;;;10.50;46.10;;;;;;6240111;28;20277;-76
2022/03/22 12:45:12;;;;;;;18.42;10.77;;;10.60;45.90;;;;;;6240043;28;20300;-76
2022/03/22 12:48:19;;;;;;;24.05;12.35;;;10.50;46.50;;;;;;6240100;28;20303;-76
2022/03/22 12:51:26;;;;;;;30.13;11.68;;;10.60;46.00;;;;;;6240012;28;20368;-77
2022/03/22 12:54:35;;;;;;;26.50;11.93;;;10.70;45.90;;;;;;6239759;28;20309;-76
2022/03/22 12:57:46;;;;;;;25.30;11.40;;;10.60;46.40;;;;;;6238782;28;20269;-76
2022/03/22 13:00:51;;;;;;;26.02;11.65;;;10.70;46.80;;;;;;6240213;28;20272;-77
2022/03/22 13:03:57;;;;;;;18.67;11.82;;;10.60;47.30;;;;;;6239186;28;20311;-76
2022/03/22 13:07:07;;;;;;;20.50;11.75;;;10.70;47.40;;;;;;6239931;28;20272;-76
2022/03/22 13:17:07;;;;;;;23.77;12.35;;;10.50;48.60;;;;;;6239645;28;20277;-76
2022/03/22 13:20:17;;;;;;;22.30;12.18;;;10.60;48.50;;;;;;6239443;28;20304;-76
2022/03/22 13:23:24;;;;;;;21.65;12.10;;;10.60;48.10;;;;;;6238880;28;20391;-76
2022/03/22 13:26:30;;;;;;;27.40;12.05;;;10.50;49.30;;;;;;6239630;28;20269;-77
2022/03/22 13:29:37;;;;;;;21.35;11.43;;;10.60;48.50;;;;;;6239074;28;20296;-76
2022/03/22 13:32:42;;;;;;;21.48;11.73;;;10.60;48.40;;;;;;6239213;28;20268;-76
2022/03/22 13:35:54;;;;;;;26.98;12.32;;;10.50;48.50;;;;;;6239638;28;20268;-76
2022/03/22 13:39:03;;;;;;;20.23;11.35;;;10.50;49.70;;;;;;6238959;28;20300;-76
2022/03/22 13:42:12;;;;;;;17.27;11.45;;;10.50;49.20;;;;;;6239133;28;20576;-74
2022/03/22 13:45:22;;;;;;;19.02;11.63;;;10.50;48.90;;;;;;6238522;28;20300;-77
2022/03/22 13:48:28;;;;;;;22.63;12.23;;;10.60;48.30;;;;;;6238402;28;20305;-76
2022/03/22 13:51:40;;;;;;;24.98;11.52;;;10.70;47.70;;;;;;6238524;28;20292;-76
2022/03/22 13:54:47;;;;;;;24.00;11.60;;;10.80;47.40;;;;;;6238612;28;20484;-75
2022/03/22 13:57:55;;;;;;;35.50;12.18;;;11.20;47.20;;;;;;6238011;28;20292;-75
2022/03/22 14:01:21;;;;;;;24.77;11.65;;;11.40;46.50;;;;;;6238318;28;20295;-76
2022/03/22 14:04:27;;;;;;;20.25;11.20;;;11.30;46.50;;;;;;6238530;28;20296;-76
2022/03/22 14:07:32;;;;;;;19.38;11.05;;;11.20;46.70;;;;;;6238405;28;20276;-76
2022/03/22 14:10:40;;;;;;;16.85;10.88;;;11.20;46.90;;;;;;6237584;28;20301;-76
2022/03/22 14:13:44;;;;;;;19.02;11.05;;;11.20;47.20;;;;;;6237902;28;20299;-76
2022/03/22 14:16:50;;;;;;;19.33;12.15;;;10.90;48.00;;;;;;6238052;28;20272;-76
2022/03/22 14:19:56;;;;;;;16.05;10.75;;;11.30;46.90;;;;;;6237869;28;20304;-76
2022/03/22 14:23:01;;;;;;;18.20;10.98;;;12.10;45.30;;;;;;6237613;28;20288;-76
2022/03/22 14:26:10;;;;;;;21.58;11.82;;;11.50;46.20;;;;;;6238250;28;20269;-76
2022/03/22 14:29:15;;;;;;;22.50;10.68;;;11.20;46.40;;;;;;6237306;28;20587;-76
2022/03/22 14:32:20;;;;;;;27.13;11.75;;;11.00;47.60;;;;;;6237367;28;20277;-76
2022/03/22 14:38:50;;;;;;;23.75;11.57;;;10.90;47.50;;;;;;6237181;28;20300;-76
2022/03/22 14:41:57;;;;;;;20.83;11.50;;;11.00;47.20;;;;;;6237841;28;20276;-76
2022/03/22 14:45:08;;;;;;;23.65;11.77;;;11.00;47.10;;;;;;6237635;28;20300;-75
2022/03/22 14:48:19;;;;;;;25.50;12.18;;;10.80;48.30;;;;;;6237113;28;20301;-76
2022/03/22 14:54:47;;;;;;;23.00;12.73;;;10.70;48.70;;;;;;6236925;28;20296;-76
2022/03/22 15:01:17;;;;;;;24.83;12.05;;;10.70;49.30;;;;;;6237808;28;20281;-76
2022/03/22 15:04:23;;;;;;;24.48;12.18;;;10.70;49.50;;;;;;6236796;28;20292;-76
2022/03/22 15:07:28;;;;;;;47.22;12.20;;;10.70;50.30;;;;;;6236588;28;20445;-76
2022/03/22 15:10:33;;;;;;;24.00;12.50;;;10.50;51.70;;;;;;6236680;28;20296;-75
2022/03/22 15:13:40;;;;;;;21.58;11.57;;;10.50;51.70;;;;;;6236854;28;20296;-76
2022/03/22 15:16:47;;;;;;;29.98;12.07;;;10.50;51.60;;;;;;6237229;28;20276;-76
2022/03/22 15:19:52;;;;;;;25.15;12.73;;;10.40;52.10;;;;;;6236321;28;20296;-76
2022/03/22 15:22:58;;;;;;;21.23;11.90;;;10.40;52.50;;;;;;6235925;28;20297;-76
2022/03/22 15:26:05;;;;;;;27.67;11.95;;;10.50;52.70;;;;;;6236931;28;20273;-76
2022/03/22 15:29:12;;;;;;;19.17;11.18;;;10.30;53.40;;;;;;6236529;28;20610;-75
2022/03/22 15:32:18;;;;;;;27.50;12.98;;;10.20;53.70;;;;;;6237101;28;20292;-76
2022/03/22 15:35:25;;;;;;;27.40;12.23;;;10.20;53.80;;;;;;6236207;28;20300;-77
2022/03/22 15:38:30;;;;;;;22.45;13.25;;;10.30;53.40;;;;;;6237743;28;20296;-78
2022/03/22 15:41:35;;;;;;;23.98;12.70;;;10.20;54.10;;;;;;6237808;28;20272;-77
2022/03/22 15:44:44;;;;;;;22.38;12.52;;;10.10;55.40;;;;;;6236328;28;20296;-77
2022/03/22 15:47:50;;;;;;;26.95;13.02;;;10.00;56.30;;;;;;6235812;28;20296;-77
2022/03/22 15:50:55;;;;;;;23.08;12.05;;;9.90;57.20;;;;;;6236713;28;20340;-77
2022/03/22 15:54:01;;;;;;;19.80;12.38;;;9.90;57.70;;;;;;6236066;28;20616;-77
2022/03/22 15:57:07;;;;;;;24.20;12.43;;;9.90;58.50;;;;;;6236369;28;20272;-77
2022/03/22 16:00:16;;;;;;;25.20;12.65;;;9.80;59.20;;;;;;6236321;28;20453;-77
2022/03/22 16:03:24;;;;;;;31.70;12.55;;;9.80;60.30;;;;;;6236604;28;20297;-76
2022/03/22 16:06:32;;;;;;;28.25;13.25;;;9.60;63.30;;;;;;6236754;28;20272;-77
2022/03/22 16:09:37;;;;;;;25.85;13.50;;;9.60;64.10;;;;;;6235861;28;20603;-76
2022/03/22 16:12:43;;;;;;;27.35;13.55;;;9.60;64.40;;;;;;6237609;28;20603;-76
2022/03/22 16:15:51;;;;;;;24.95;13.35;;;9.50;67.30;;;;;;6236247;28;20268;-76
2022/03/22 16:18:57;;;;;;;23.10;13.23;;;9.60;67.40;;;;;;6235855;28;20324;-76
2022/03/22 16:22:03;;;;;;;26.17;12.40;;;9.50;69.20;;;;;;6235875;28;20297;-76
2022/03/22 16:25:12;;;;;;;22.20;13.27;;;9.50;70.80;;;;;;6235445;28;20296;-76
2022/03/22 16:28:20;;;;;;;26.83;13.65;;;9.40;71.20;;;;;;6235391;28;20300;-76
2022/03/22 16:31:28;;;;;;;26.63;13.35;;;9.30;75.10;;;;;;6235634;28;20292;-76
2022/03/22 16:37:56;;;;;;;24.42;13.80;;;9.00;79.30;;;;;;6240037;28;20300;-76
2022/03/22 16:41:01;;;;;;;23.60;14.32;;;8.90;81.40;;;;;;6240128;28;20297;-76
2022/03/22 16:44:07;;;;;;;24.45;14.50;;;8.80;83.10;;;;;;6240224;28;20296;-77
2022/03/22 16:47:16;;;;;;;29.45;14.77;;;8.70;84.40;;;;;;6240754;28;20556;-77